Mackville, Vermont
Current Conditions -  °F | °C
As of 10:54 PM on Wednesday 22 Oct 2014 (Local Time) from KMVL Reporting Station
Overcast Overcast  
Wind Chill: 45°   Ceiling: 2900
Heat Index: 49°   Visibility: 10mi
Dew Point: 38°   Wind: 10mph
Humidity: 66%   Direction: 10°N
Pressure: 30.1"   Gusts: NA
Location:  44.5213°N, 72.3604°W
Report Text: KMVL 230254Z AUTO 01009KT 10SM OVC029 09/03 A3010 RMK AO2 SLP197 60000 T00940033 56013
Loading
Personal Weather Stations






























Interactive Weather Map
Tropical Storm Tracking
New forecast layout! Learn more

10-Day Weather Forecast

Advertisements
Track Severe Weather on mobile